Time;durP1;ratioP1;P1;durP2;ratioP2;P2;SDS_P1;SDS_P2;PMS_P1;PMS_P2;Temp;Humidity;BMP_temperature;BMP_pressure;BME280_temperature;BME280_humidity;BME280_pressure;Samples;Min_cycle;Max_cycle;Signal;HPM_P1;HPM_P2
2024/03/02 00:04:18;;;;;;;46.20;28.10;;;;;;;7.70;100.00;150606.63;10626162;27;20084;-71
2024/03/02 00:09:20;;;;;;;55.47;29.40;;;;;;;7.62;100.00;150586.06;10607708;27;20065;-71
2024/03/02 00:14:25;;;;;;;59.03;30.33;;;;;;;7.53;100.00;150564.16;10625684;27;20221;-71
2024/03/02 00:19:27;;;;;;;61.92;31.13;;;;;;;7.47;100.00;150548.66;10626065;27;20406;-71
2024/03/02 00:24:34;;;;;;;54.45;29.25;;;;;;;7.58;100.00;150577.03;10625475;27;20108;-72
2024/03/02 00:29:36;;;;;;;52.25;29.25;;;;;;;7.65;100.00;150593.75;10626441;27;20039;-71
2024/03/02 00:34:38;;;;;;;55.58;28.05;;;;;;;7.71;100.00;150610.53;10624826;27;20128;-71
2024/03/02 00:39:40;;;;;;;57.53;30.55;;;;;;;7.76;100.00;150622.13;10624976;27;20530;-71
2024/03/02 00:44:42;;;;;;;67.40;31.90;;;;;;;8.26;100.00;150749.66;10624824;27;20035;-71
2024/03/02 00:49:47;;;;;;;55.40;31.08;;;;;;;7.95;100.00;150669.78;10624666;28;20047;-71
2024/03/02 00:54:49;;;;;;;56.78;31.40;;;;;;;7.76;100.00;150622.13;10624119;28;20062;-71
2024/03/02 00:59:51;;;;;;;55.97;28.63;;;;;;;7.74;100.00;150616.94;10624838;28;20089;-71
2024/03/02 01:04:53;;;;;;;59.53;29.90;;;;;;;7.87;100.00;150650.44;10623987;28;20406;-71
2024/03/02 01:09:55;;;;;;;52.03;30.92;;;;;;;7.74;100.00;150616.94;10624964;28;20483;-71
2024/03/02 01:14:57;;;;;;;54.60;28.80;;;;;;;7.59;100.00;150580.88;10627473;27;20060;-70
2024/03/02 01:19:59;;;;;;;53.00;29.98;;;;;;;7.70;100.00;150606.63;10632313;27;20047;-70
2024/03/02 01:25:01;;;;;;;59.33;30.63;;;;;;;7.63;100.00;150588.63;10631679;27;20042;-70
2024/03/02 01:30:03;;;;;;;59.20;31.40;;;;;;;7.72;100.00;150611.81;10631705;27;20061;-70
2024/03/02 01:35:06;;;;;;;49.55;27.85;;;;;;;7.60;100.00;150582.16;10631326;27;20069;-70
2024/03/02 01:40:09;;;;;;;46.80;27.45;;;;;;;7.68;100.00;150602.78;10631210;27;20043;-70
2024/03/02 01:45:11;;;;;;;50.47;28.98;;;;;;;7.95;100.00;150669.78;10630738;27;20552;-71
2024/03/02 01:50:13;;;;;;;55.17;28.75;;;;;;;7.86;100.00;150646.59;10631565;27;20562;-70
2024/03/02 01:55:15;;;;;;;50.85;29.70;;;;;;;7.82;100.00;150638.84;10631014;27;20506;-71
2024/03/02 02:00:17;;;;;;;52.92;26.85;;;;;;;7.65;100.00;150593.75;10631139;27;20134;-71
2024/03/02 02:05:19;;;;;;;47.72;27.60;;;;;;;7.66;100.00;150596.31;10630255;27;20131;-72
2024/03/02 02:10:21;;;;;;;59.05;31.02;;;;;;;7.84;100.00;150642.72;10631451;27;20051;-70
2024/03/02 02:15:28;;;;;;;55.28;30.30;;;;;;;7.91;100.00;150659.47;10611739;27;20066;-70
2024/03/02 02:20:30;;;;;;;49.88;28.85;;;;;;;7.76;100.00;150622.13;10629613;27;20092;-70
2024/03/02 02:25:31;;;;;;;50.10;27.60;;;;;;;7.75;100.00;150619.53;10628478;27;20068;-72
2024/03/02 02:30:33;;;;;;;56.05;30.63;;;;;;;7.99;100.00;150681.38;10612214;27;20468;-70
2024/03/02 02:35:35;;;;;;;50.90;29.70;;;;;;;7.81;100.00;150635.00;10629283;27;20035;-70
2024/03/02 02:40:37;;;;;;;50.65;28.52;;;;;;;7.79;100.00;150629.81;10629305;27;20127;-70
2024/03/02 02:45:39;;;;;;;52.60;27.83;;;;;;;8.01;100.00;150685.22;10629205;27;20444;-70
2024/03/02 02:50:41;;;;;;;40.08;25.60;;;;;;;7.77;100.00;150624.69;10628680;27;20042;-70
2024/03/02 02:55:43;;;;;;;47.25;27.48;;;;;;;7.74;100.00;150616.94;10628815;27;20136;-70
2024/03/02 03:00:45;;;;;;;47.25;27.83;;;;;;;7.63;100.00;150588.63;10628861;27;20039;-71
2024/03/02 03:05:48;;;;;;;56.78;29.90;;;;;;;8.03;100.00;150690.41;10610112;27;20189;-71
2024/03/02 03:10:50;;;;;;;51.65;28.48;;;;;;;7.72;100.00;150613.09;10628385;27;20122;-71
2024/03/02 03:15:52;;;;;;;54.60;30.95;;;;;;;7.68;100.00;150602.78;10627816;27;20035;-70
2024/03/02 03:20:54;;;;;;;48.55;28.50;;;;;;;7.71;100.00;150610.53;10627818;27;20130;-71
2024/03/02 03:25:56;;;;;;;46.72;27.58;;;;;;;7.64;100.00;150591.19;10627319;27;20088;-71
2024/03/02 03:30:58;;;;;;;45.10;28.60;;;;;;;7.91;100.00;150659.47;10627377;27;20044;-72
2024/03/02 03:36:02;;;;;;;46.88;28.90;;;;;;;7.63;100.00;150589.91;10626772;27;20035;-72
2024/03/02 03:41:04;;;;;;;50.05;27.10;;;;;;;7.51;100.00;150558.97;10626410;27;20578;-71
2024/03/02 03:46:07;;;;;;;52.45;28.73;;;;;;;7.50;100.00;150557.69;10628127;27;20107;-71
2024/03/02 03:51:09;;;;;;;54.72;28.55;;;;;;;7.46;100.00;150546.09;10626153;27;20039;-71
2024/03/02 03:56:11;;;;;;;53.28;29.35;;;;;;;7.66;100.00;150597.66;10626366;27;20035;-71
2024/03/02 04:01:13;;;;;;;55.25;28.83;;;;;;;7.56;100.00;150571.84;10626580;27;20446;-72
2024/03/02 04:06:16;;;;;;;42.40;26.95;;;;;;;7.63;100.00;150588.63;10626672;27;20035;-70
2024/03/02 04:11:18;;;;;;;41.50;26.02;;;;;;;7.72;100.00;150611.81;10629262;27;20070;-70
2024/03/02 04:16:20;;;;;;;53.70;28.52;;;;;;;7.56;100.00;150571.84;10629443;27;20051;-71
2024/03/02 04:21:21;;;;;;;41.97;26.55;;;;;;;7.42;100.00;150535.78;10629374;27;20043;-71
2024/03/02 04:26:25;;;;;;;45.90;25.58;;;;;;;7.49;100.00;150553.84;10610300;27;20035;-71
2024/03/02 04:31:26;;;;;;;48.30;27.08;;;;;;;7.52;100.00;150561.53;10628185;27;20076;-71
2024/03/02 04:36:28;;;;;;;42.08;26.95;;;;;;;7.62;100.00;150586.06;10610220;27;20040;-70
2024/03/02 04:41:30;;;;;;;48.15;27.60;;;;;;;7.52;100.00;150561.53;10628314;27;20152;-71
2024/03/02 04:46:32;;;;;;;49.15;26.67;;;;;;;7.50;100.00;150557.69;10627281;27;20035;-70
2024/03/02 04:51:34;;;;;;;47.83;26.45;;;;;;;7.50;100.00;150557.69;10639657;27;20126;-71
2024/03/02 04:56:49;;;;;;;47.35;26.88;;;;;;;7.49;100.00;150553.84;10641747;27;20043;-70
2024/03/02 05:01:51;;;;;;;37.97;24.30;;;;;;;7.39;100.00;150529.34;10642690;27;20035;-70
2024/03/02 05:06:55;;;;;;;53.85;28.40;;;;;;;7.40;100.00;150531.94;10641902;27;20039;-71
2024/03/02 05:17:11;;;;;;;51.15;28.23;;;;;;;7.63;100.00;150588.63;10626889;27;20035;-71
2024/03/02 05:22:12;;;;;;;48.35;26.38;;;;;;;7.69;100.00;150605.34;10642529;27;20402;-71
2024/03/02 05:27:14;;;;;;;50.72;27.38;;;;;;;7.75;100.00;150619.53;10642390;27;20407;-71
2024/03/02 05:32:16;;;;;;;54.50;28.67;;;;;;;7.51;100.00;150560.25;10641603;27;20050;-70
2024/03/02 05:37:18;;;;;;;46.83;25.63;;;;;;;7.46;100.00;150547.38;10642431;27;20039;-71
2024/03/02 05:42:20;;;;;;;52.20;27.10;;;;;;;7.53;100.00;150564.16;10641153;27;20093;-71
2024/03/02 05:47:22;;;;;;;53.80;26.98;;;;;;;7.56;100.00;150573.13;10623194;27;20463;-71
2024/03/02 05:52:24;;;;;;;52.35;27.48;;;;;;;7.85;100.00;150645.31;10639579;27;20045;-70
2024/03/02 06:02:45;;;;;;;50.05;25.67;;;;;;;7.52;100.00;150561.53;10633859;27;20096;-71
2024/03/02 06:07:47;;;;;;;41.83;22.70;;;;;;;7.41;100.00;150534.50;10630777;27;20503;-71
2024/03/02 06:12:49;;;;;;;46.50;26.42;;;;;;;7.44;100.00;150542.25;10613893;27;20403;-72
2024/03/02 06:17:51;;;;;;;57.00;25.55;;;;;;;7.48;100.00;150552.56;10612230;27;20126;-71
2024/03/02 06:22:52;;;;;;;48.13;25.58;;;;;;;7.60;100.00;150582.16;10631290;27;20047;-71
2024/03/02 06:27:54;;;;;;;46.25;24.85;;;;;;;7.50;100.00;150557.69;10630729;27;20063;-72
2024/03/02 06:32:56;;;;;;;51.28;26.05;;;;;;;7.52;100.00;150561.53;10630495;27;20159;-70
2024/03/02 06:37:58;;;;;;;61.53;25.65;;;;;;;7.57;100.00;150574.47;10630395;27;20046;-71
2024/03/02 06:42:59;;;;;;;41.50;24.98;;;;;;;7.50;100.00;150557.69;10630512;27;20051;-70
2024/03/02 06:48:01;;;;;;;44.55;25.35;;;;;;;7.46;100.00;150547.38;10630117;27;20554;-71
2024/03/02 06:53:04;;;;;;;52.95;25.83;;;;;;;7.61;100.00;150583.44;10630197;27;20043;-70
2024/03/02 06:58:06;;;;;;;48.58;25.88;;;;;;;7.53;100.00;150565.44;10629378;27;20048;-70
2024/03/02 07:03:07;;;;;;;59.65;28.98;;;;;;;7.73;100.00;150614.38;10611117;27;20103;-70
2024/03/02 07:08:09;;;;;;;61.30;28.27;;;;;;;7.84;100.00;150642.72;10611171;27;20039;-70
2024/03/02 07:13:12;;;;;;;44.72;23.80;;;;;;;7.63;100.00;150589.91;10610845;27;20051;-70
2024/03/02 07:18:14;;;;;;;52.47;26.38;;;;;;;7.48;100.00;150551.22;10629320;27;20074;-70
2024/03/02 07:23:16;;;;;;;55.90;26.88;;;;;;;7.57;100.00;150575.75;10628297;27;20080;-70
2024/03/02 07:28:18;;;;;;;50.03;26.58;;;;;;;7.46;100.00;150546.09;10609306;27;20066;-70
2024/03/02 07:33:21;;;;;;;71.10;32.97;;;;;;;7.68;100.00;150602.78;10628006;27;20039;-70
2024/03/02 07:38:23;;;;;;;60.45;30.48;;;;;;;7.80;100.00;150633.72;10629203;27;20046;-70
2024/03/02 07:43:25;;;;;;;60.10;29.35;;;;;;;7.83;100.00;150640.13;10628176;27;20049;-72
2024/03/02 07:48:27;;;;;;;52.83;28.25;;;;;;;8.10;100.00;150708.41;10610630;27;20039;-71
2024/03/02 07:53:29;;;;;;;61.35;27.13;;;;;;;7.97;100.00;150674.91;10610790;27;20095;-71
2024/03/02 07:58:31;;;;;;;51.92;26.75;;;;;;;7.84;100.00;150642.72;10628129;27;20058;-71
2024/03/02 08:03:34;;;;;;;69.03;29.33;;;;;;;7.90;100.00;150656.91;10626900;27;20050;-71
2024/03/02 08:08:36;;;;;;;59.75;27.60;;;;;;;7.93;100.00;150665.91;10626971;27;20047;-71
2024/03/02 08:13:38;;;;;;;59.88;28.60;;;;;;;7.95;100.00;150669.78;10627363;27;20054;-71
2024/03/02 08:18:40;;;;;;;58.50;28.23;;;;;;;7.99;100.00;150681.38;10608213;27;20043;-71
2024/03/02 08:23:43;;;;;;;64.75;30.25;;;;;;;8.22;100.00;150738.06;10626486;27;20035;-71
2024/03/02 08:28:45;;;;;;;68.90;31.70;;;;;;;8.24;100.00;150744.53;10626279;27;20034;-71
2024/03/02 08:33:47;;;;;;;71.05;33.17;;;;;;;8.58;100.00;150830.91;10608152;27;20069;-70
2024/03/02 08:38:50;;;;;;;65.90;29.70;;;;;;;8.51;100.00;150812.88;10626585;27;20063;-70
2024/03/02 08:43:52;;;;;;;61.38;30.67;;;;;;;8.84;100.00;150895.38;10607290;27;20100;-70
2024/03/02 08:48:54;;;;;;;62.05;27.67;;;;;;;8.89;100.00;150908.28;10627905;27;20045;-71
2024/03/02 08:53:57;;;;;;;49.13;25.50;;;;;;;8.74;100.00;150869.63;10627327;28;20115;-71
2024/03/02 08:58:59;;;;;;;66.25;28.75;;;;;;;8.69;100.00;150856.72;10626732;28;20043;-70
2024/03/02 09:04:01;;;;;;;62.75;27.75;;;;;;;8.73;100.00;150867.06;10628688;28;20556;-72
2024/03/02 09:09:04;;;;;;;60.88;26.50;;;;;;;9.00;100.00;150935.38;10627997;28;20067;-71
2024/03/02 09:14:06;;;;;;;61.45;25.33;;;;;;;9.11;100.00;150963.72;10627031;28;20104;-72
2024/03/02 09:19:09;;;;;;;58.65;25.50;;;;;;;9.60;100.00;151088.84;10606872;28;20046;-72
2024/03/02 09:24:12;;;;;;;42.67;21.60;;;;;;;9.94;100.00;151174.03;10606624;28;20039;-72
2024/03/02 09:29:17;;;;;;;45.57;21.33;;;;;;;9.79;100.00;151135.34;10624869;28;20039;-71
2024/03/02 09:34:19;;;;;;;34.70;20.33;;;;;;;9.83;100.00;151146.94;10625035;27;20495;-72
2024/03/02 09:39:21;;;;;;;36.58;20.02;;;;;;;9.72;100.00;151118.53;10632426;27;20043;-72
2024/03/02 09:44:24;;;;;;;32.47;18.70;;;;;;;9.95;100.00;151176.59;10632723;27;20107;-72
2024/03/02 09:49:27;;;;;;;28.42;18.00;;;;;;;9.77;100.00;151131.44;10632120;27;20392;-71
2024/03/02 09:54:28;;;;;;;31.42;18.35;;;;;;;9.79;100.00;151135.34;10631420;27;20114;-71
2024/03/02 09:59:30;;;;;;;21.55;15.38;;;;;;;9.89;100.00;151161.13;10632601;27;20440;-72
2024/03/02 10:04:33;;;;;;;23.58;14.98;;;;;;;10.18;100.00;151233.41;10631523;27;20047;-72
2024/03/02 10:09:35;;;;;;;17.92;13.43;;;;;;;10.49;100.00;151312.19;10631602;27;20098;-72
2024/03/02 10:14:37;;;;;;;13.90;12.40;;;;;;;10.31;100.00;151268.34;10631558;27;20073;-72
2024/03/02 10:19:40;;;;;;;14.55;12.05;;;;;;;10.02;100.00;151193.41;10631329;27;20035;-71
2024/03/02 10:24:46;;;;;;;13.55;11.73;;;;;;;9.74;100.00;151122.41;10631289;27;20070;-72
2024/03/02 10:29:52;;;;;;;16.80;13.25;;;;;;;10.01;100.00;151192.13;10612274;27;20035;-72
2024/03/02 10:34:54;;;;;;;14.00;12.50;;;;;;;10.24;100.00;151250.25;10611968;27;20065;-72
2024/03/02 10:39:56;;;;;;;17.40;13.55;;;;;;;10.06;100.00;151205.03;10630552;27;20035;-72
2024/03/02 10:44:58;;;;;;;14.23;12.73;;;;;;;10.31;100.00;151268.34;10611335;27;20075;-72
2024/03/02 10:50:01;;;;;;;18.67;12.13;;;;;;;10.47;100.00;151307.03;10594179;27;20063;-72
2024/03/02 10:55:05;;;;;;;11.77;10.45;;;;;;;10.74;100.00;151376.75;10568144;28;20052;-72
2024/03/02 11:00:14;;;;;;;11.95;10.73;;;;;;;10.89;100.00;151414.25;10577593;27;20033;-72
2024/03/02 11:05:25;;;;;;;11.68;10.48;;;;;;;10.97;100.00;151433.56;10625502;27;20046;-72
2024/03/02 11:10:33;;;;;;;11.77;9.43;;;;;;;10.94;100.00;151427.16;10650224;27;20406;-72
2024/03/02 11:15:37;;;;;;;10.63;8.82;;;;;;;11.50;99.94;151569.22;10629530;27;20094;-72
2024/03/02 11:20:41;;;;;;;8.95;8.15;;;;;;;12.40;91.24;151795.50;10628622;27;20047;-72
2024/03/02 11:25:43;;;;;;;7.38;6.63;;;;;;;12.16;90.47;151734.69;10628736;27;20094;-73
2024/03/02 11:30:45;;;;;;;5.07;4.53;;;;;;;12.93;84.79;151931.28;10628242;27;20038;-73
2024/03/02 11:35:47;;;;;;;5.47;4.32;;;;;;;13.30;82.53;152025.72;10627178;27;20080;-72
2024/03/02 11:40:49;;;;;;;4.30;3.85;;;;;;;13.68;77.67;152121.50;10668802;27;20046;-72
2024/03/02 11:45:57;;;;;;;5.20;4.70;;;;;;;13.10;79.59;151975.25;10649450;27;20038;-72
2024/03/02 11:51:00;;;;;;;4.22;3.85;;;;;;;12.83;81.62;151905.38;10669369;27;20501;-72
2024/03/02 11:56:02;;;;;;;4.72;4.32;;;;;;;12.61;83.91;151851.03;10668184;27;20132;-72
2024/03/02 12:01:04;;;;;;;4.72;4.28;;;;;;;12.27;84.42;151763.16;10667590;27;20042;-73
2024/03/02 12:06:07;;;;;;;4.80;4.40;;;;;;;12.39;82.41;151794.16;10667004;27;20109;-72
2024/03/02 12:11:13;;;;;;;5.35;4.78;;;;;;;12.39;83.14;151794.16;10636718;27;20039;-73
2024/03/02 12:16:24;;;;;;;5.85;4.47;;;;;;;12.36;82.42;151786.44;10667609;27;20462;-73
2024/03/02 12:21:26;;;;;;;5.53;5.03;;;;;;;12.55;79.94;151834.25;10667051;27;20483;-73
2024/03/02 12:26:28;;;;;;;5.35;4.80;;;;;;;12.32;79.91;151776.09;10649220;27;20042;-73
2024/03/02 12:31:30;;;;;;;7.47;5.90;;;;;;;12.39;81.19;151794.16;10667173;27;20092;-73
2024/03/02 12:36:41;;;;;;;6.20;5.60;;;;;;;12.11;83.05;151724.34;10648501;27;20554;-73
2024/03/02 12:41:43;;;;;;;5.78;4.80;;;;;;;12.21;82.17;151748.91;10667177;27;20137;-73
2024/03/02 12:46:46;;;;;;;6.88;5.63;;;;;;;12.15;81.74;151733.41;10666912;27;20035;-73
2024/03/02 12:51:52;;;;;;;10.63;7.68;;;;;;;11.84;80.59;151655.84;10667968;27;20046;-72
2024/03/02 12:56:54;;;;;;;9.82;8.32;;;;;;;11.82;81.54;151649.31;10668559;27;20031;-72
2024/03/02 13:01:59;;;;;;;9.65;8.68;;;;;;;11.95;80.72;151681.69;10668073;27;20045;-72
2024/03/02 13:07:02;;;;;;;10.60;8.75;;;;;;;12.10;81.86;151721.78;10667604;27;20039;-72
2024/03/02 13:12:04;;;;;;;9.70;8.70;;;;;;;12.29;78.97;151768.31;10671613;27;20106;-73
2024/03/02 13:17:08;;;;;;;7.97;7.15;;;;;;;11.98;78.59;151689.47;10674599;27;20046;-72
2024/03/02 13:22:10;;;;;;;10.05;8.18;;;;;;;12.04;77.87;151706.28;10674055;27;20125;-72
2024/03/02 13:27:12;;;;;;;11.15;8.40;;;;;;;11.93;79.72;151677.84;10674550;27;20383;-73
2024/03/02 13:32:15;;;;;;;18.70;8.82;;;;;;;12.10;78.68;151721.78;10674656;27;20138;-72
2024/03/02 13:37:16;;;;;;;11.77;10.10;;;;;;;11.96;79.01;151684.31;10674354;27;20038;-72
2024/03/02 13:42:18;;;;;;;11.88;9.45;;;;;;;11.85;78.08;151658.44;10674420;27;20147;-72
2024/03/02 13:47:21;;;;;;;15.05;10.23;;;;;;;11.94;78.15;151679.13;10673348;27;20113;-72
2024/03/02 13:52:23;;;;;;;12.75;8.95;;;;;;;11.43;79.83;151549.88;10655332;27;20483;-72
2024/03/02 13:57:24;;;;;;;11.98;8.80;;;;;;;11.65;79.96;151605.44;10673335;27;20085;-72
2024/03/02 14:02:28;;;;;;;11.45;8.90;;;;;;;11.55;80.66;151582.19;10672663;27;20039;-72
2024/03/02 14:07:29;;;;;;;10.77;8.88;;;;;;;11.47;82.51;151561.50;10673958;27;20064;-72
2024/03/02 14:12:31;;;;;;;11.15;9.10;;;;;;;11.43;80.27;151551.16;10672222;27;20122;-72
2024/03/02 14:17:34;;;;;;;10.57;9.35;;;;;;;11.27;83.04;151511.09;10671972;27;20054;-72
2024/03/02 14:22:37;;;;;;;13.02;10.43;;;;;;;11.27;82.48;151511.09;10671270;27;20049;-71
2024/03/02 14:27:39;;;;;;;14.15;11.20;;;;;;;11.51;81.42;151570.50;10672300;27;20444;-71
2024/03/02 14:33:00;;;;;;;16.63;11.95;;;;;;;11.28;83.19;151513.66;10657844;27;20049;-71
2024/03/02 14:38:02;;;;;;;16.67;11.63;;;;;;;11.26;83.64;151507.22;10672671;27;20117;-72
2024/03/02 14:43:04;;;;;;;11.05;9.90;;;;;;;11.38;82.22;151538.25;10672812;27;20043;-73
2024/03/02 14:48:06;;;;;;;13.77;10.15;;;;;;;11.21;82.44;151495.59;10653892;27;20125;-72
2024/03/02 14:53:08;;;;;;;13.25;11.90;;;;;;;11.25;83.00;151505.94;10672651;27;20506;-71
2024/03/02 14:58:10;;;;;;;11.88;10.68;;;;;;;11.07;83.78;151460.72;10671011;27;20186;-72
2024/03/02 15:03:12;;;;;;;12.00;10.38;;;;;;;11.33;82.97;151525.28;10670631;27;20439;-73
2024/03/02 15:08:14;;;;;;;11.85;10.63;;;;;;;11.13;83.45;151473.63;10670692;27;20060;-73
2024/03/02 15:13:16;;;;;;;12.50;10.95;;;;;;;11.21;82.68;151494.31;10651665;27;20038;-71
2024/03/02 15:18:18;;;;;;;13.15;10.30;;;;;;;10.86;84.49;151407.75;10669301;27;20465;-71
2024/03/02 15:23:20;;;;;;;10.43;9.25;;;;;;;10.85;84.37;151405.19;10669455;27;20589;-72
2024/03/02 15:28:22;;;;;;;11.95;10.52;;;;;;;11.15;81.11;151478.78;10669980;27;20518;-71
2024/03/02 15:33:29;;;;;;;11.23;9.05;;;;;;;10.99;81.78;151440.06;10669673;27;20514;-72
2024/03/02 15:38:32;;;;;;;12.32;9.77;;;;;;;11.03;80.39;151450.41;10652143;27;20042;-71
2024/03/02 15:43:39;;;;;;;9.25;8.27;;;;;;;10.92;80.16;151421.94;10669257;27;20050;-71
2024/03/02 15:48:41;;;;;;;10.43;9.00;;;;;;;10.75;81.27;151378.03;10668279;27;20046;-71
2024/03/02 15:53:43;;;;;;;11.73;8.63;;;;;;;10.74;82.46;151375.47;10650737;27;20383;-73
2024/03/02 15:58:45;;;;;;;11.48;9.07;;;;;;;10.75;82.18;151378.03;10669749;27;20039;-71
2024/03/02 16:03:47;;;;;;;10.88;9.68;;;;;;;10.68;82.53;151361.28;10650221;27;20455;-73
2024/03/02 16:08:53;;;;;;;11.32;9.55;;;;;;;10.73;82.10;151372.91;10670013;27;20034;-72
2024/03/02 16:13:55;;;;;;;13.85;10.43;;;;;;;10.64;82.35;151349.66;10649324;27;20426;-72
2024/03/02 16:18:57;;;;;;;13.55;10.68;;;;;;;10.51;82.55;151318.66;10669112;27;20039;-72
2024/03/02 16:23:59;;;;;;;13.43;10.82;;;;;;;10.52;82.49;151321.22;10668030;27;20046;-72
2024/03/02 16:29:01;;;;;;;16.75;11.45;;;;;;;10.57;81.87;151332.84;10668199;27;20134;-73
2024/03/02 16:34:04;;;;;;;15.70;11.35;;;;;;;10.53;83.04;151323.81;10631813;27;20043;-72
2024/03/02 16:39:08;;;;;;;14.88;13.10;;;;;;;10.52;83.49;151321.22;10648465;27;20054;-71
2024/03/02 16:44:10;;;;;;;14.77;12.52;;;;;;;10.54;83.78;151325.13;10666443;27;20125;-71
2024/03/02 16:49:11;;;;;;;15.73;14.18;;;;;;;10.57;82.83;151334.13;10667527;27;20042;-72
2024/03/02 16:54:13;;;;;;;14.75;13.07;;;;;;;10.39;84.24;151286.38;10666882;27;20075;-73
2024/03/02 16:59:15;;;;;;;19.65;13.05;;;;;;;10.38;85.87;151283.81;10667105;27;20038;-73
2024/03/02 17:04:17;;;;;;;18.15;13.10;;;;;;;10.35;85.71;151278.63;10667045;27;20062;-72
2024/03/02 17:09:21;;;;;;;14.25;12.85;;;;;;;10.61;84.01;151344.47;10668268;27;20386;-73
2024/03/02 17:14:24;;;;;;;13.43;11.88;;;;;;;10.46;84.63;151305.75;10667170;27;20066;-72
2024/03/02 17:19:26;;;;;;;13.85;12.07;;;;;;;10.23;86.49;151246.34;10666087;27;20405;-72
2024/03/02 17:24:27;;;;;;;13.55;12.35;;;;;;;10.21;87.09;151242.44;10666515;27;20046;-73
2024/03/02 17:29:30;;;;;;;14.13;12.68;;;;;;;10.58;84.68;151335.41;10666883;27;20395;-73
2024/03/02 17:34:32;;;;;;;14.40;13.05;;;;;;;10.40;85.68;151288.94;10667395;27;20039;-73
2024/03/02 17:39:34;;;;;;;12.32;11.13;;;;;;;10.03;88.97;151197.25;10666322;27;20034;-72
2024/03/02 17:44:35;;;;;;;14.00;12.50;;;;;;;10.15;88.38;151225.69;10666552;27;20062;-73
2024/03/02 17:49:37;;;;;;;12.45;11.15;;;;;;;10.24;87.31;151248.91;10667249;27;20471;-71
2024/03/02 17:54:40;;;;;;;14.02;12.07;;;;;;;9.86;89.54;151154.66;10647783;27;20051;-72
2024/03/02 17:59:43;;;;;;;12.20;10.27;;;;;;;9.68;90.44;151108.22;10674257;27;20091;-73
2024/03/02 18:04:45;;;;;;;15.00;12.50;;;;;;;9.83;90.70;151145.66;10674261;27;20410;-72
2024/03/02 18:09:47;;;;;;;14.15;12.73;;;;;;;9.66;91.35;151101.78;10674568;27;20039;-72
2024/03/02 18:14:48;;;;;;;18.25;13.40;;;;;;;9.39;93.39;151034.72;10672978;27;20045;-72
2024/03/02 18:19:51;;;;;;;14.20;12.80;;;;;;;9.35;94.78;151024.38;10672572;27;20077;-72
2024/03/02 18:24:53;;;;;;;13.60;11.55;;;;;;;9.09;95.41;150958.59;10674001;27;20126;-73
2024/03/02 18:29:55;;;;;;;15.00;13.57;;;;;;;8.84;97.69;150896.69;10655468;27;20383;-72
2024/03/02 18:34:56;;;;;;;15.68;13.93;;;;;;;8.80;98.80;150885.06;10672378;27;20122;-72
2024/03/02 18:39:58;;;;;;;15.95;14.38;;;;;;;8.85;99.40;150897.97;10654622;27;20129;-72
2024/03/02 18:45:04;;;;;;;18.25;14.70;;;;;;;8.77;99.42;150878.66;10673079;27;20450;-72
2024/03/02 18:50:10;;;;;;;15.88;14.10;;;;;;;8.65;100.00;150846.41;10656939;27;20461;-74
2024/03/02 18:55:12;;;;;;;16.20;14.10;;;;;;;8.46;100.00;150800.00;10672658;27;20068;-73
2024/03/02 19:00:14;;;;;;;15.13;13.43;;;;;;;8.30;100.00;150758.69;10662094;27;20380;-72
2024/03/02 19:05:16;;;;;;;17.25;14.77;;;;;;;8.34;100.00;150769.00;10586023;28;20031;-74
2024/03/02 19:10:18;;;;;;;15.68;14.18;;;;;;;8.14;100.00;150718.72;10586101;28;20039;-73
2024/03/02 19:15:20;;;;;;;17.17;14.93;;;;;;;8.08;100.00;150703.28;10568527;28;20067;-73
2024/03/02 19:20:23;;;;;;;14.77;13.18;;;;;;;7.97;100.00;150676.22;10589344;27;20043;-74
2024/03/02 19:25:25;;;;;;;23.40;16.90;;;;;;;7.93;100.00;150664.63;10628816;27;20039;-73
2024/03/02 19:30:27;;;;;;;19.85;14.35;;;;;;;8.12;100.00;150713.59;10583572;28;20143;-73
2024/03/02 19:35:29;;;;;;;21.38;15.80;;;;;;;7.88;100.00;150653.03;10603985;27;20549;-72
2024/03/02 19:40:30;;;;;;;18.00;16.05;;;;;;;8.07;100.00;150702.00;10670085;27;20035;-73
2024/03/02 19:45:33;;;;;;;21.88;16.25;;;;;;;7.82;100.00;150637.56;10670460;27;20055;-72
2024/03/02 19:50:36;;;;;;;18.48;14.45;;;;;;;7.63;100.00;150588.63;10671451;27;20047;-73
2024/03/02 19:55:40;;;;;;;19.73;16.70;;;;;;;7.90;100.00;150656.91;10651507;27;20054;-73
2024/03/02 20:00:42;;;;;;;22.00;15.88;;;;;;;7.76;100.00;150622.13;10673564;27;20070;-74
2024/03/02 20:05:44;;;;;;;16.45;14.80;;;;;;;7.47;100.00;150548.66;10671027;27;20411;-74
2024/03/02 20:10:45;;;;;;;19.73;15.43;;;;;;;7.32;100.00;150512.59;10643234;27;20043;-72
2024/03/02 20:15:48;;;;;;;21.27;17.77;;;;;;;7.42;100.00;150535.78;10627743;27;20043;-73
2024/03/02 20:20:50;;;;;;;18.85;16.90;;;;;;;7.42;100.00;150537.06;10628306;27;20038;-72
2024/03/02 20:25:54;;;;;;;17.42;15.38;;;;;;;7.47;100.00;150548.66;10608073;27;20239;-73
2024/03/02 20:30:56;;;;;;;17.35;15.60;;;;;;;7.36;100.00;150520.34;10626702;27;20046;-73
2024/03/02 20:35:58;;;;;;;18.80;16.33;;;;;;;7.29;100.00;150503.59;10625744;27;20061;-73
2024/03/02 20:40:59;;;;;;;25.05;18.50;;;;;;;7.37;100.00;150524.19;10625879;27;20130;-72
2024/03/02 20:46:06;;;;;;;20.88;16.95;;;;;;;7.41;100.00;150534.50;10626010;27;20034;-72
2024/03/02 20:51:08;;;;;;;23.92;18.23;;;;;;;7.80;100.00;150632.44;10625528;27;20051;-73
2024/03/02 20:56:10;;;;;;;29.42;17.75;;;;;;;8.04;100.00;150692.97;10625248;28;20084;-72
2024/03/02 21:01:12;;;;;;;23.20;18.48;;;;;;;8.11;100.00;150711.03;10626287;28;20071;-72
2024/03/02 21:06:14;;;;;;;20.42;17.02;;;;;;;8.07;100.00;150702.00;10606985;28;20518;-73
2024/03/02 21:11:17;;;;;;;22.02;18.10;;;;;;;7.89;100.00;150654.31;10624601;28;20043;-73
2024/03/02 21:16:20;;;;;;;25.33;18.88;;;;;;;7.72;100.00;150611.81;10624949;28;20462;-72
2024/03/02 21:21:22;;;;;;;28.05;19.77;;;;;;;7.93;100.00;150664.63;10625668;28;20400;-73
2024/03/02 21:26:23;;;;;;;24.98;20.10;;;;;;;8.00;100.00;150683.94;10606028;28;20043;-73
2024/03/02 21:31:25;;;;;;;19.58;17.17;;;;;;;7.86;100.00;150646.59;10590868;28;20118;-73
2024/03/02 21:36:27;;;;;;;24.58;19.23;;;;;;;7.86;100.00;150646.59;10571897;28;20071;-72
2024/03/02 21:41:29;;;;;;;26.88;19.30;;;;;;;7.90;100.00;150658.19;10591014;28;20511;-72
2024/03/02 21:46:30;;;;;;;24.00;18.35;;;;;;;7.53;100.00;150565.44;10589929;28;20039;-73
2024/03/02 21:51:32;;;;;;;25.38;19.02;;;;;;;7.27;100.00;150499.75;10589472;28;20504;-73
2024/03/02 21:56:34;;;;;;;24.98;18.60;;;;;;;7.14;100.00;150466.25;10572705;28;20097;-72
2024/03/02 22:01:37;;;;;;;22.65;17.75;;;;;;;7.13;100.00;150462.34;10597106;28;20040;-74
2024/03/02 22:06:39;;;;;;;25.58;18.85;;;;;;;7.00;100.00;150430.22;10575095;28;20108;-72
2024/03/02 22:11:41;;;;;;;25.00;19.35;;;;;;;6.87;100.00;150396.75;10591747;28;20093;-72
2024/03/02 22:16:42;;;;;;;26.40;18.90;;;;;;;6.79;100.00;150377.41;10591852;28;20561;-72
2024/03/02 22:21:44;;;;;;;26.50;17.48;;;;;;;6.70;100.00;150354.25;10591321;28;20043;-74
2024/03/02 22:26:46;;;;;;;28.27;18.05;;;;;;;6.47;100.00;150296.31;10592416;28;20067;-73
2024/03/02 22:31:48;;;;;;;23.35;17.65;;;;;;;6.38;100.00;150274.44;10593169;28;20056;-72
2024/03/02 22:36:50;;;;;;;26.23;17.48;;;;;;;6.19;100.00;150226.81;10591423;28;20039;-71
2024/03/02 22:41:52;;;;;;;25.02;19.13;;;;;;;6.17;100.00;150221.69;10572154;28;20407;-73
2024/03/02 22:46:54;;;;;;;25.73;19.40;;;;;;;6.51;100.00;150306.63;10590774;28;20043;-72
2024/03/02 22:51:56;;;;;;;29.10;19.58;;;;;;;6.32;100.00;150260.25;10592992;28;20050;-71
2024/03/02 22:56:58;;;;;;;28.77;20.33;;;;;;;6.49;100.00;150302.75;10590394;28;20075;-73